sensor_id;sensor_type;location;lat;lon;timestamp;pressure;altitude;pressure_sealevel;temperature;humidity
62948;BME280;51940;52.126;-0.994;2023-02-15T00:00:13;101623.66;;;0.47;100.00
62948;BME280;51940;52.126;-0.994;2023-02-15T00:02:39;101622.89;;;0.40;100.00
62948;BME280;51940;52.126;-0.994;2023-02-15T00:05:05;101627.58;;;0.34;100.00
62948;BME280;51940;52.126;-0.994;2023-02-15T00:07:31;101627.22;;;0.24;100.00
62948;BME280;51940;52.126;-0.994;2023-02-15T00:09:57;101624.00;;;0.18;100.00
62948;BME280;51940;52.126;-0.994;2023-02-15T00:12:23;101619.51;;;0.15;100.00
62948;BME280;51940;52.126;-0.994;2023-02-15T00:14:48;101619.55;;;0.12;100.00
62948;BME280;51940;52.126;-0.994;2023-02-15T00:17:13;101611.64;;;0.11;100.00
62948;BME280;51940;52.126;-0.994;2023-02-15T00:19:39;101605.17;;;0.12;100.00
62948;BME280;51940;52.126;-0.994;2023-02-15T00:22:05;101598.95;;;0.10;100.00
62948;BME280;51940;52.126;-0.994;2023-02-15T00:24:31;101593.83;;;0.09;100.00
62948;BME280;51940;52.126;-0.994;2023-02-15T00:26:57;101588.99;;;0.07;100.00
62948;BME280;51940;52.126;-0.994;2023-02-15T00:29:26;101583.27;;;0.03;100.00
62948;BME280;51940;52.126;-0.994;2023-02-15T00:31:51;101580.36;;;0.00;100.00
62948;BME280;51940;52.126;-0.994;2023-02-15T00:34:22;101576.52;;;-0.04;100.00
62948;BME280;51940;52.126;-0.994;2023-02-15T00:36:49;101569.81;;;-0.10;100.00
62948;BME280;51940;52.126;-0.994;2023-02-15T00:39:16;101570.98;;;-0.11;100.00
62948;BME280;51940;52.126;-0.994;2023-02-15T00:41:42;101567.42;;;-0.13;100.00
62948;BME280;51940;52.126;-0.994;2023-02-15T00:44:08;101570.45;;;-0.16;100.00
62948;BME280;51940;52.126;-0.994;2023-02-15T00:46:33;101569.39;;;-0.17;100.00
62948;BME280;51940;52.126;-0.994;2023-02-15T00:48:59;101565.08;;;-0.19;100.00
62948;BME280;51940;52.126;-0.994;2023-02-15T00:51:25;101562.41;;;-0.20;100.00
62948;BME280;51940;52.126;-0.994;2023-02-15T00:53:51;101557.28;;;-0.21;100.00
62948;BME280;51940;52.126;-0.994;2023-02-15T00:56:16;101550.36;;;-0.23;100.00
62948;BME280;51940;52.126;-0.994;2023-02-15T00:58:43;101544.31;;;-0.30;100.00
62948;BME280;51940;52.126;-0.994;2023-02-15T01:01:11;101537.39;;;-0.37;100.00
62948;BME280;51940;52.126;-0.994;2023-02-15T01:03:37;101532.02;;;-0.44;100.00
62948;BME280;51940;52.126;-0.994;2023-02-15T01:06:03;101525.95;;;-0.47;100.00
62948;BME280;51940;52.126;-0.994;2023-02-15T01:08:29;101522.37;;;-0.49;100.00
62948;BME280;51940;52.126;-0.994;2023-02-15T01:10:55;101520.39;;;-0.51;100.00
62948;BME280;51940;52.126;-0.994;2023-02-15T01:13:21;101518.34;;;-0.53;100.00
62948;BME280;51940;52.126;-0.994;2023-02-15T01:15:53;101513.89;;;-0.55;100.00
62948;BME280;51940;52.126;-0.994;2023-02-15T01:18:18;101510.91;;;-0.60;100.00
62948;BME280;51940;52.126;-0.994;2023-02-15T01:20:44;101505.40;;;-0.67;100.00
62948;BME280;51940;52.126;-0.994;2023-02-15T01:23:10;101501.20;;;-0.75;100.00
62948;BME280;51940;52.126;-0.994;2023-02-15T01:25:36;101496.52;;;-0.78;100.00
62948;BME280;51940;52.126;-0.994;2023-02-15T01:28:02;101497.57;;;-0.78;100.00
62948;BME280;51940;52.126;-0.994;2023-02-15T01:30:27;101496.34;;;-0.78;100.00
62948;BME280;51940;52.126;-0.994;2023-02-15T01:32:53;101489.52;;;-0.78;100.00
62948;BME280;51940;52.126;-0.994;2023-02-15T01:35:18;101487.52;;;-0.76;100.00
62948;BME280;51940;52.126;-0.994;2023-02-15T01:37:44;101492.68;;;-0.74;100.00
62948;BME280;51940;52.126;-0.994;2023-02-15T01:40:13;101492.79;;;-0.71;100.00
62948;BME280;51940;52.126;-0.994;2023-02-15T01:42:39;101492.23;;;-0.71;100.00
62948;BME280;51940;52.126;-0.994;2023-02-15T01:45:19;101487.70;;;-0.76;100.00
62948;BME280;51940;52.126;-0.994;2023-02-15T01:50:27;101479.69;;;-0.78;100.00
62948;BME280;51940;52.126;-0.994;2023-02-15T01:52:59;101473.39;;;-0.83;100.00
62948;BME280;51940;52.126;-0.994;2023-02-15T01:55:31;101476.58;;;-0.86;100.00
62948;BME280;51940;52.126;-0.994;2023-02-15T01:57:58;101473.00;;;-0.88;100.00
62948;BME280;51940;52.126;-0.994;2023-02-15T02:00:24;101468.45;;;-0.88;100.00
62948;BME280;51940;52.126;-0.994;2023-02-15T02:02:53;101470.39;;;-0.88;100.00
62948;BME280;51940;52.126;-0.994;2023-02-15T02:05:20;101467.08;;;-0.88;100.00
62948;BME280;51940;52.126;-0.994;2023-02-15T02:07:46;101463.58;;;-0.88;100.00
62948;BME280;51940;52.126;-0.994;2023-02-15T02:12:44;101458.20;;;-0.82;100.00
62948;BME280;51940;52.126;-0.994;2023-02-15T02:15:10;101453.54;;;-0.85;100.00
62948;BME280;51940;52.126;-0.994;2023-02-15T02:20:27;101450.26;;;-0.88;100.00
62948;BME280;51940;52.126;-0.994;2023-02-15T02:39:49;101443.21;;;-0.89;100.00
62948;BME280;51940;52.126;-0.994;2023-02-15T02:42:25;101437.85;;;-0.92;100.00
62948;BME280;51940;52.126;-0.994;2023-02-15T02:45:02;101431.92;;;-0.95;100.00
62948;BME280;51940;52.126;-0.994;2023-02-15T02:48:00;101425.73;;;-0.97;100.00
62948;BME280;51940;52.126;-0.994;2023-02-15T02:50:25;101418.84;;;-0.94;100.00
62948;BME280;51940;52.126;-0.994;2023-02-15T02:52:54;101418.80;;;-0.91;100.00
62948;BME280;51940;52.126;-0.994;2023-02-15T02:55:36;101422.66;;;-0.91;100.00
62948;BME280;51940;52.126;-0.994;2023-02-15T02:58:10;101421.28;;;-0.95;100.00
62948;BME280;51940;52.126;-0.994;2023-02-15T03:00:57;101416.48;;;-1.01;100.00
62948;BME280;51940;52.126;-0.994;2023-02-15T03:06:00;101407.34;;;-1.16;100.00
62948;BME280;51940;52.126;-0.994;2023-02-15T03:08:42;101405.83;;;-1.23;100.00
62948;BME280;51940;52.126;-0.994;2023-02-15T03:11:09;101395.05;;;-1.30;100.00
62948;BME280;51940;52.126;-0.994;2023-02-15T03:13:36;101394.34;;;-1.34;100.00
62948;BME280;51940;52.126;-0.994;2023-02-15T03:16:04;101385.35;;;-1.36;100.00
62948;BME280;51940;52.126;-0.994;2023-02-15T03:18:58;101384.70;;;-1.35;100.00
62948;BME280;51940;52.126;-0.994;2023-02-15T03:21:31;101377.42;;;-1.32;100.00
62948;BME280;51940;52.126;-0.994;2023-02-15T03:24:04;101371.90;;;-1.31;100.00
62948;BME280;51940;52.126;-0.994;2023-02-15T03:26:32;101365.44;;;-1.30;100.00
62948;BME280;51940;52.126;-0.994;2023-02-15T03:29:00;101353.58;;;-1.29;100.00
62948;BME280;51940;52.126;-0.994;2023-02-15T03:31:30;101354.52;;;-1.28;100.00
62948;BME280;51940;52.126;-0.994;2023-02-15T03:34:05;101349.50;;;-1.27;100.00
62948;BME280;51940;52.126;-0.994;2023-02-15T03:36:50;101343.56;;;-1.26;100.00
62948;BME280;51940;52.126;-0.994;2023-02-15T03:39:33;101341.05;;;-1.28;100.00
62948;BME280;51940;52.126;-0.994;2023-02-15T03:44:55;101338.49;;;-1.35;100.00
62948;BME280;51940;52.126;-0.994;2023-02-15T03:47:26;101341.46;;;-1.35;100.00
62948;BME280;51940;52.126;-0.994;2023-02-15T03:50:01;101339.34;;;-1.36;100.00
62948;BME280;51940;52.126;-0.994;2023-02-15T03:52:28;101341.20;;;-1.37;100.00
62948;BME280;51940;52.126;-0.994;2023-02-15T03:54:55;101336.55;;;-1.35;100.00
62948;BME280;51940;52.126;-0.994;2023-02-15T03:57:26;101337.25;;;-1.36;100.00
62948;BME280;51940;52.126;-0.994;2023-02-15T04:05:44;101332.06;;;-1.29;100.00
62948;BME280;51940;52.126;-0.994;2023-02-15T04:08:10;101333.46;;;-1.34;100.00
62948;BME280;51940;52.126;-0.994;2023-02-15T04:10:36;101329.27;;;-1.38;100.00
62948;BME280;51940;52.126;-0.994;2023-02-15T04:13:30;101330.73;;;-1.36;100.00
62948;BME280;51940;52.126;-0.994;2023-02-15T04:15:55;101325.73;;;-1.35;100.00
62948;BME280;51940;52.126;-0.994;2023-02-15T04:18:41;101323.98;;;-1.39;100.00
62948;BME280;51940;52.126;-0.994;2023-02-15T04:21:28;101321.17;;;-1.48;100.00
62948;BME280;51940;52.126;-0.994;2023-02-15T04:24:13;101320.39;;;-1.59;100.00
62948;BME280;51940;52.126;-0.994;2023-02-15T04:26:58;101315.20;;;-1.66;100.00
62948;BME280;51940;52.126;-0.994;2023-02-15T04:29:25;101311.86;;;-1.67;100.00
62948;BME280;51940;52.126;-0.994;2023-02-15T04:31:52;101312.67;;;-1.64;100.00
62948;BME280;51940;52.126;-0.994;2023-02-15T04:34:18;101311.09;;;-1.60;100.00
62948;BME280;51940;52.126;-0.994;2023-02-15T04:36:44;101305.92;;;-1.58;100.00
62948;BME280;51940;52.126;-0.994;2023-02-15T04:39:12;101297.64;;;-1.59;100.00
62948;BME280;51940;52.126;-0.994;2023-02-15T04:41:38;101291.30;;;-1.60;100.00
62948;BME280;51940;52.126;-0.994;2023-02-15T04:44:04;101285.95;;;-1.59;100.00
62948;BME280;51940;52.126;-0.994;2023-02-15T04:46:29;101283.60;;;-1.56;100.00
62948;BME280;51940;52.126;-0.994;2023-02-15T04:48:56;101287.69;;;-1.54;100.00
62948;BME280;51940;52.126;-0.994;2023-02-15T04:51:22;101290.38;;;-1.57;100.00
62948;BME280;51940;52.126;-0.994;2023-02-15T04:53:47;101292.08;;;-1.63;100.00
62948;BME280;51940;52.126;-0.994;2023-02-15T04:56:12;101282.64;;;-1.67;100.00
62948;BME280;51940;52.126;-0.994;2023-02-15T04:58:39;101281.22;;;-1.68;100.00
62948;BME280;51940;52.126;-0.994;2023-02-15T05:01:08;101281.04;;;-1.68;100.00
62948;BME280;51940;52.126;-0.994;2023-02-15T05:03:34;101275.69;;;-1.70;100.00
62948;BME280;51940;52.126;-0.994;2023-02-15T05:06:00;101279.08;;;-1.73;100.00
62948;BME280;51940;52.126;-0.994;2023-02-15T05:08:26;101280.30;;;-1.69;100.00
62948;BME280;51940;52.126;-0.994;2023-02-15T05:10:53;101274.36;;;-1.64;100.00
62948;BME280;51940;52.126;-0.994;2023-02-15T05:13:18;101271.04;;;-1.60;100.00
62948;BME280;51940;52.126;-0.994;2023-02-15T05:15:48;101268.64;;;-1.59;100.00
62948;BME280;51940;52.126;-0.994;2023-02-15T05:18:14;101265.91;;;-1.57;100.00
62948;BME280;51940;52.126;-0.994;2023-02-15T05:20:40;101271.59;;;-1.54;100.00
62948;BME280;51940;52.126;-0.994;2023-02-15T05:23:05;101266.48;;;-1.55;100.00
62948;BME280;51940;52.126;-0.994;2023-02-15T05:25:32;101265.79;;;-1.55;100.00
62948;BME280;51940;52.126;-0.994;2023-02-15T05:28:16;101259.08;;;-1.57;100.00
62948;BME280;51940;52.126;-0.994;2023-02-15T05:30:44;101252.58;;;-1.58;100.00
62948;BME280;51940;52.126;-0.994;2023-02-15T05:33:10;101254.13;;;-1.58;100.00
62948;BME280;51940;52.126;-0.994;2023-02-15T05:35:35;101257.25;;;-1.59;100.00
62948;BME280;51940;52.126;-0.994;2023-02-15T05:38:02;101247.67;;;-1.58;100.00
62948;BME280;51940;52.126;-0.994;2023-02-15T05:40:29;101249.34;;;-1.60;100.00
62948;BME280;51940;52.126;-0.994;2023-02-15T05:42:56;101250.23;;;-1.64;100.00
62948;BME280;51940;52.126;-0.994;2023-02-15T05:45:21;101245.30;;;-1.65;100.00
62948;BME280;51940;52.126;-0.994;2023-02-15T05:47:47;101243.21;;;-1.64;100.00
62948;BME280;51940;52.126;-0.994;2023-02-15T05:50:12;101240.53;;;-1.62;100.00
62948;BME280;51940;52.126;-0.994;2023-02-15T05:52:38;101242.35;;;-1.60;100.00
62948;BME280;51940;52.126;-0.994;2023-02-15T05:55:04;101246.55;;;-1.60;100.00
62948;BME280;51940;52.126;-0.994;2023-02-15T05:57:30;101240.06;;;-1.61;100.00
62948;BME280;51940;52.126;-0.994;2023-02-15T05:59:56;101237.35;;;-1.62;100.00
62948;BME280;51940;52.126;-0.994;2023-02-15T06:02:21;101242.13;;;-1.61;100.00
62948;BME280;51940;52.126;-0.994;2023-02-15T06:04:47;101242.15;;;-1.60;100.00
62948;BME280;51940;52.126;-0.994;2023-02-15T06:07:12;101233.93;;;-1.61;100.00
62948;BME280;51940;52.126;-0.994;2023-02-15T06:09:37;101233.10;;;-1.64;100.00
62948;BME280;51940;52.126;-0.994;2023-02-15T06:12:03;101234.65;;;-1.64;100.00
62948;BME280;51940;52.126;-0.994;2023-02-15T06:14:28;101232.27;;;-1.62;100.00
62948;BME280;51940;52.126;-0.994;2023-02-15T06:16:54;101232.31;;;-1.61;100.00
62948;BME280;51940;52.126;-0.994;2023-02-15T06:19:19;101230.83;;;-1.60;100.00
62948;BME280;51940;52.126;-0.994;2023-02-15T06:21:46;101231.55;;;-1.59;100.00
62948;BME280;51940;52.126;-0.994;2023-02-15T06:24:12;101236.57;;;-1.60;100.00
62948;BME280;51940;52.126;-0.994;2023-02-15T06:26:37;101236.05;;;-1.64;100.00
62948;BME280;51940;52.126;-0.994;2023-02-15T06:29:03;101239.38;;;-1.64;100.00
62948;BME280;51940;52.126;-0.994;2023-02-15T06:31:28;101241.46;;;-1.64;100.00
62948;BME280;51940;52.126;-0.994;2023-02-15T06:33:54;101243.70;;;-1.65;100.00
62948;BME280;51940;52.126;-0.994;2023-02-15T06:36:30;101253.55;;;-1.69;100.00
62948;BME280;51940;52.126;-0.994;2023-02-15T06:38:56;101252.67;;;-1.73;100.00
62948;BME280;51940;52.126;-0.994;2023-02-15T06:41:22;101251.33;;;-1.76;100.00
62948;BME280;51940;52.126;-0.994;2023-02-15T06:43:48;101242.73;;;-1.78;100.00
62948;BME280;51940;52.126;-0.994;2023-02-15T06:46:13;101247.66;;;-1.77;100.00
62948;BME280;51940;52.126;-0.994;2023-02-15T06:48:39;101249.86;;;-1.79;100.00
62948;BME280;51940;52.126;-0.994;2023-02-15T06:51:04;101249.55;;;-1.78;100.00
62948;BME280;51940;52.126;-0.994;2023-02-15T06:53:29;101249.93;;;-1.77;100.00
62948;BME280;51940;52.126;-0.994;2023-02-15T06:56:06;101252.92;;;-1.80;100.00
62948;BME280;51940;52.126;-0.994;2023-02-15T06:58:40;101256.63;;;-1.84;100.00
62948;BME280;51940;52.126;-0.994;2023-02-15T07:01:07;101257.42;;;-1.86;100.00
62948;BME280;51940;52.126;-0.994;2023-02-15T07:03:34;101258.86;;;-1.89;100.00
62948;BME280;51940;52.126;-0.994;2023-02-15T07:06:02;101257.34;;;-1.88;100.00
62948;BME280;51940;52.126;-0.994;2023-02-15T07:08:29;101262.46;;;-1.82;100.00
62948;BME280;51940;52.126;-0.994;2023-02-15T07:10:55;101263.66;;;-1.79;100.00
62948;BME280;51940;52.126;-0.994;2023-02-15T07:13:43;101263.95;;;-1.76;100.00
62948;BME280;51940;52.126;-0.994;2023-02-15T07:16:10;101258.43;;;-1.74;100.00
62948;BME280;51940;52.126;-0.994;2023-02-15T07:18:36;101264.65;;;-1.76;100.00
62948;BME280;51940;52.126;-0.994;2023-02-15T07:21:01;101262.68;;;-1.81;100.00
62948;BME280;51940;52.126;-0.994;2023-02-15T07:23:28;101261.32;;;-1.85;100.00
62948;BME280;51940;52.126;-0.994;2023-02-15T07:25:57;101257.81;;;-1.85;100.00
62948;BME280;51940;52.126;-0.994;2023-02-15T07:28:23;101249.99;;;-1.84;100.00
62948;BME280;51940;52.126;-0.994;2023-02-15T07:30:50;101245.61;;;-1.80;100.00
62948;BME280;51940;52.126;-0.994;2023-02-15T07:33:16;101246.26;;;-1.77;100.00
62948;BME280;51940;52.126;-0.994;2023-02-15T07:36:00;101251.57;;;-1.75;100.00
62948;BME280;51940;52.126;-0.994;2023-02-15T07:38:27;101252.93;;;-1.76;100.00
62948;BME280;51940;52.126;-0.994;2023-02-15T07:41:01;101257.09;;;-1.77;100.00
62948;BME280;51940;52.126;-0.994;2023-02-15T07:43:28;101255.80;;;-1.74;100.00
62948;BME280;51940;52.126;-0.994;2023-02-15T07:45:59;101253.86;;;-1.70;100.00
62948;BME280;51940;52.126;-0.994;2023-02-15T07:48:25;101247.73;;;-1.65;100.00
62948;BME280;51940;52.126;-0.994;2023-02-15T07:50:50;101249.73;;;-1.63;100.00
62948;BME280;51940;52.126;-0.994;2023-02-15T07:53:15;101247.44;;;-1.64;100.00
62948;BME280;51940;52.126;-0.994;2023-02-15T07:55:41;101243.98;;;-1.63;100.00
62948;BME280;51940;52.126;-0.994;2023-02-15T07:58:06;101240.66;;;-1.59;100.00
62948;BME280;51940;52.126;-0.994;2023-02-15T08:00:34;101242.54;;;-1.55;100.00
62948;BME280;51940;52.126;-0.994;2023-02-15T08:03:19;101239.30;;;-1.48;100.00
62948;BME280;51940;52.126;-0.994;2023-02-15T08:05:45;101235.50;;;-1.42;100.00
62948;BME280;51940;52.126;-0.994;2023-02-15T08:08:12;101239.39;;;-1.36;100.00
62948;BME280;51940;52.126;-0.994;2023-02-15T08:11:06;101240.86;;;-1.30;100.00
62948;BME280;51940;52.126;-0.994;2023-02-15T08:16:47;101238.70;;;-1.18;100.00
62948;BME280;51940;52.126;-0.994;2023-02-15T08:19:26;101236.64;;;-1.11;100.00
62948;BME280;51940;52.126;-0.994;2023-02-15T08:21:57;101237.52;;;-1.07;100.00
62948;BME280;51940;52.126;-0.994;2023-02-15T08:24:26;101240.67;;;-1.02;100.00
62948;BME280;51940;52.126;-0.994;2023-02-15T08:26:52;101240.67;;;-0.97;100.00
62948;BME280;51940;52.126;-0.994;2023-02-15T08:29:20;101233.83;;;-0.93;100.00
62948;BME280;51940;52.126;-0.994;2023-02-15T08:31:48;101230.87;;;-0.87;100.00
62948;BME280;51940;52.126;-0.994;2023-02-15T08:34:16;101230.05;;;-0.81;100.00
62948;BME280;51940;52.126;-0.994;2023-02-15T08:36:42;101223.48;;;-0.74;100.00
62948;BME280;51940;52.126;-0.994;2023-02-15T08:39:10;101218.10;;;-0.67;100.00
62948;BME280;51940;52.126;-0.994;2023-02-15T08:41:38;101213.39;;;-0.61;100.00
62948;BME280;51940;52.126;-0.994;2023-02-15T08:44:06;101203.43;;;-0.55;100.00
62948;BME280;51940;52.126;-0.994;2023-02-15T08:46:34;101197.68;;;-0.49;100.00
62948;BME280;51940;52.126;-0.994;2023-02-15T08:49:01;101194.63;;;-0.46;100.00
62948;BME280;51940;52.126;-0.994;2023-02-15T08:51:33;101191.27;;;-0.42;100.00
62948;BME280;51940;52.126;-0.994;2023-02-15T08:54:05;101186.33;;;-0.37;100.00
62948;BME280;51940;52.126;-0.994;2023-02-15T08:56:34;101193.17;;;-0.32;100.00
62948;BME280;51940;52.126;-0.994;2023-02-15T08:59:01;101192.30;;;-0.26;100.00
62948;BME280;51940;52.126;-0.994;2023-02-15T09:01:31;101192.33;;;-0.20;100.00
62948;BME280;51940;52.126;-0.994;2023-02-15T09:03:59;101197.00;;;-0.11;100.00
62948;BME280;51940;52.126;-0.994;2023-02-15T09:06:25;101196.09;;;-0.01;100.00
62948;BME280;51940;52.126;-0.994;2023-02-15T09:08:53;101196.25;;;0.10;100.00
62948;BME280;51940;52.126;-0.994;2023-02-15T09:11:24;101192.73;;;0.21;100.00
62948;BME280;51940;52.126;-0.994;2023-02-15T09:13:57;101191.92;;;0.35;100.00
62948;BME280;51940;52.126;-0.994;2023-02-15T09:16:25;101186.94;;;0.50;100.00
62948;BME280;51940;52.126;-0.994;2023-02-15T09:18:51;101180.49;;;0.64;100.00
62948;BME280;51940;52.126;-0.994;2023-02-15T09:21:20;101167.18;;;0.77;100.00
62948;BME280;51940;52.126;-0.994;2023-02-15T09:23:49;101163.06;;;0.93;100.00
62948;BME280;51940;52.126;-0.994;2023-02-15T09:26:20;101165.36;;;1.13;100.00
62948;BME280;51940;52.126;-0.994;2023-02-15T09:28:46;101168.95;;;1.43;100.00
62948;BME280;51940;52.126;-0.994;2023-02-15T09:31:17;101173.24;;;1.75;100.00
62948;BME280;51940;52.126;-0.994;2023-02-15T09:33:46;101168.86;;;2.06;100.00
62948;BME280;51940;52.126;-0.994;2023-02-15T09:38:56;101183.27;;;2.61;100.00
62948;BME280;51940;52.126;-0.994;2023-02-15T09:44:15;101183.23;;;3.12;100.00
62948;BME280;51940;52.126;-0.994;2023-02-15T09:52:36;101201.35;;;3.68;100.00
62948;BME280;51940;52.126;-0.994;2023-02-15T09:58:08;101193.16;;;3.96;100.00
62948;BME280;51940;52.126;-0.994;2023-02-15T10:17:25;101170.63;;;4.94;100.00
62948;BME280;51940;52.126;-0.994;2023-02-15T10:28:43;101168.27;;;5.39;100.00
62948;BME280;51940;52.126;-0.994;2023-02-15T10:33:43;101171.98;;;5.58;100.00
62948;BME280;51940;52.126;-0.994;2023-02-15T10:36:40;101175.45;;;5.71;100.00
62948;BME280;51940;52.126;-0.994;2023-02-15T10:39:48;101176.24;;;5.82;100.00
62948;BME280;51940;52.126;-0.994;2023-02-15T10:50:57;101166.27;;;6.49;100.00
62948;BME280;51940;52.126;-0.994;2023-02-15T11:01:34;101146.27;;;7.08;100.00
62948;BME280;51940;52.126;-0.994;2023-02-15T11:06:48;101141.52;;;7.40;100.00
62948;BME280;51940;52.126;-0.994;2023-02-15T11:09:17;101140.99;;;7.54;100.00
62948;BME280;51940;52.126;-0.994;2023-02-15T11:11:49;101148.64;;;7.66;100.00
62948;BME280;51940;52.126;-0.994;2023-02-15T11:14:45;101142.06;;;7.78;100.00
62948;BME280;51940;52.126;-0.994;2023-02-15T11:17:18;101140.98;;;7.91;100.00
62948;BME280;51940;52.126;-0.994;2023-02-15T11:20:04;101141.68;;;8.02;100.00
62948;BME280;51940;52.126;-0.994;2023-02-15T11:22:33;101140.77;;;8.13;100.00
62948;BME280;51940;52.126;-0.994;2023-02-15T11:25:00;101144.13;;;8.21;100.00
62948;BME280;51940;52.126;-0.994;2023-02-15T11:27:31;101140.91;;;8.29;100.00
62948;BME280;51940;52.126;-0.994;2023-02-15T11:30:04;101141.80;;;8.37;100.00
62948;BME280;51940;52.126;-0.994;2023-02-15T11:32:39;101138.23;;;8.46;100.00
62948;BME280;51940;52.126;-0.994;2023-02-15T11:40:29;101122.10;;;8.75;100.00
62948;BME280;51940;52.126;-0.994;2023-02-15T11:42:58;101115.48;;;8.83;100.00
62948;BME280;51940;52.126;-0.994;2023-02-15T11:45:31;101118.46;;;8.90;100.00
62948;BME280;51940;52.126;-0.994;2023-02-15T11:47:58;101123.94;;;8.96;100.00
62948;BME280;51940;52.126;-0.994;2023-02-15T11:50:27;101126.92;;;9.02;100.00
62948;BME280;51940;52.126;-0.994;2023-02-15T11:53:00;101121.02;;;9.09;100.00
62948;BME280;51940;52.126;-0.994;2023-02-15T11:55:27;101116.19;;;9.15;100.00
62948;BME280;51940;52.126;-0.994;2023-02-15T12:00:43;101099.89;;;9.27;100.00
62948;BME280;51940;52.126;-0.994;2023-02-15T12:03:24;101099.86;;;9.31;100.00
62948;BME280;51940;52.126;-0.994;2023-02-15T12:06:00;101097.52;;;9.35;100.00
62948;BME280;51940;52.126;-0.994;2023-02-15T12:08:43;101095.52;;;9.39;100.00
62948;BME280;51940;52.126;-0.994;2023-02-15T12:11:18;101089.25;;;9.44;100.00
62948;BME280;51940;52.126;-0.994;2023-02-15T12:13:59;101085.98;;;9.51;100.00
62948;BME280;51940;52.126;-0.994;2023-02-15T12:16:26;101084.67;;;9.59;100.00
62948;BME280;51940;52.126;-0.994;2023-02-15T12:18:55;101085.15;;;9.65;100.00
62948;BME280;51940;52.126;-0.994;2023-02-15T12:24:11;101082.95;;;9.72;100.00
62948;BME280;51940;52.126;-0.994;2023-02-15T12:26:40;101090.94;;;9.76;100.00
62948;BME280;51940;52.126;-0.994;2023-02-15T12:29:17;101091.23;;;9.81;100.00
62948;BME280;51940;52.126;-0.994;2023-02-15T12:31:49;101088.64;;;9.89;100.00
62948;BME280;51940;52.126;-0.994;2023-02-15T12:34:25;101078.59;;;9.98;100.00
62948;BME280;51940;52.126;-0.994;2023-02-15T12:36:54;101065.31;;;10.05;100.00
62948;BME280;51940;52.126;-0.994;2023-02-15T12:39:32;101055.11;;;10.09;100.00
62948;BME280;51940;52.126;-0.994;2023-02-15T12:41:59;101064.14;;;10.14;100.00
62948;BME280;51940;52.126;-0.994;2023-02-15T12:44:33;101066.96;;;10.18;100.00
62948;BME280;51940;52.126;-0.994;2023-02-15T12:49:34;101062.40;;;10.30;100.00
62948;BME280;51940;52.126;-0.994;2023-02-15T12:52:06;101058.23;;;10.36;100.00
62948;BME280;51940;52.126;-0.994;2023-02-15T12:54:40;101056.35;;;10.42;100.00
62948;BME280;51940;52.126;-0.994;2023-02-15T12:57:20;101053.27;;;10.45;100.00
62948;BME280;51940;52.126;-0.994;2023-02-15T13:00:05;101050.90;;;10.51;100.00
62948;BME280;51940;52.126;-0.994;2023-02-15T13:07:49;101043.15;;;10.69;100.00
62948;BME280;51940;52.126;-0.994;2023-02-15T13:10:36;101038.27;;;10.72;100.00
62948;BME280;51940;52.126;-0.994;2023-02-15T13:13:09;101039.27;;;10.78;100.00
62948;BME280;51940;52.126;-0.994;2023-02-15T13:15:38;101039.73;;;10.83;100.00
62948;BME280;51940;52.126;-0.994;2023-02-15T13:18:12;101037.84;;;10.90;100.00
62948;BME280;51940;52.126;-0.994;2023-02-15T13:20:38;101036.52;;;10.96;100.00
62948;BME280;51940;52.126;-0.994;2023-02-15T13:23:21;101039.99;;;11.00;100.00
62948;BME280;51940;52.126;-0.994;2023-02-15T13:25:47;101033.54;;;11.04;100.00
62948;BME280;51940;52.126;-0.994;2023-02-15T13:28:17;101033.10;;;11.08;100.00
62948;BME280;51940;52.126;-0.994;2023-02-15T13:30:46;101030.52;;;11.13;100.00
62948;BME280;51940;52.126;-0.994;2023-02-15T13:33:33;101023.67;;;11.16;100.00
62948;BME280;51940;52.126;-0.994;2023-02-15T13:36:25;101007.74;;;11.18;100.00
62948;BME280;51940;52.126;-0.994;2023-02-15T13:45:01;101000.11;;;11.26;100.00
62948;BME280;51940;52.126;-0.994;2023-02-15T13:53:23;100987.35;;;11.32;100.00
62948;BME280;51940;52.126;-0.994;2023-02-15T14:04:43;100981.94;;;11.44;100.00
62948;BME280;51940;52.126;-0.994;2023-02-15T14:12:37;100967.42;;;11.47;100.00
62948;BME280;51940;52.126;-0.994;2023-02-15T14:23:21;100974.26;;;11.46;100.00
62948;BME280;51940;52.126;-0.994;2023-02-15T14:26:02;100975.48;;;11.45;100.00
62948;BME280;51940;52.126;-0.994;2023-02-15T14:31:14;100977.27;;;11.47;100.00
62948;BME280;51940;52.126;-0.994;2023-02-15T14:33:47;100977.80;;;11.47;100.00
62948;BME280;51940;52.126;-0.994;2023-02-15T14:36:18;100978.54;;;11.46;100.00
62948;BME280;51940;52.126;-0.994;2023-02-15T14:38:48;100979.80;;;11.44;100.00
62948;BME280;51940;52.126;-0.994;2023-02-15T14:48:50;100982.41;;;11.48;100.00
62948;BME280;51940;52.126;-0.994;2023-02-15T15:02:12;100993.86;;;11.38;100.00
62948;BME280;51940;52.126;-0.994;2023-02-15T15:04:45;100987.73;;;11.31;100.00
62948;BME280;51940;52.126;-0.994;2023-02-15T15:07:21;100986.53;;;11.27;100.00
62948;BME280;51940;52.126;-0.994;2023-02-15T15:15:34;100979.15;;;11.32;100.00
62948;BME280;51940;52.126;-0.994;2023-02-15T15:18:10;100981.05;;;11.35;100.00
62948;BME280;51940;52.126;-0.994;2023-02-15T15:20:51;100987.58;;;11.39;100.00
62948;BME280;51940;52.126;-0.994;2023-02-15T15:25:50;100987.64;;;11.45;100.00
62948;BME280;51940;52.126;-0.994;2023-02-15T15:45:02;100980.22;;;11.41;100.00
62948;BME280;51940;52.126;-0.994;2023-02-15T15:50:17;100982.81;;;11.36;100.00
62948;BME280;51940;52.126;-0.994;2023-02-15T15:52:54;100988.52;;;11.36;100.00
62948;BME280;51940;52.126;-0.994;2023-02-15T15:55:23;100989.08;;;11.35;100.00
62948;BME280;51940;52.126;-0.994;2023-02-15T15:57:53;100988.81;;;11.30;100.00
62948;BME280;51940;52.126;-0.994;2023-02-15T16:00:46;100988.84;;;11.28;100.00
62948;BME280;51940;52.126;-0.994;2023-02-15T16:03:30;100986.93;;;11.24;100.00
62948;BME280;51940;52.126;-0.994;2023-02-15T16:05:56;100985.94;;;11.21;100.00
62948;BME280;51940;52.126;-0.994;2023-02-15T16:08:36;100988.52;;;11.16;100.00
62948;BME280;51940;52.126;-0.994;2023-02-15T16:11:12;100986.45;;;11.12;100.00